createdAt,value
2018-04-27T00:01:53.860Z,52.86
2018-04-27T00:04:20.257Z,52.88
2018-04-27T00:06:46.451Z,52.74
2018-04-27T00:09:12.605Z,52.76
2018-04-27T00:11:38.751Z,52.95
2018-04-27T00:14:04.931Z,53.10
2018-04-27T00:16:31.107Z,53.04
2018-04-27T00:18:57.266Z,53.20
2018-04-27T00:21:23.741Z,53.32
2018-04-27T00:23:49.910Z,53.33
2018-04-27T00:26:16.045Z,53.40
2018-04-27T00:28:42.209Z,53.47
2018-04-27T00:31:08.371Z,53.57
2018-04-27T00:33:34.626Z,53.75
2018-04-27T00:36:01.009Z,53.76
2018-04-27T00:38:27.190Z,53.82
2018-04-27T00:40:53.354Z,53.82
2018-04-27T00:43:19.502Z,53.85
2018-04-27T00:45:45.685Z,53.76
2018-04-27T00:48:11.906Z,53.86
2018-04-27T00:50:38.042Z,53.86
2018-04-27T00:53:16.489Z,53.93
2018-04-27T00:55:42.922Z,53.96
2018-04-27T00:58:09.061Z,54.01
2018-04-27T01:00:35.248Z,54.00
2018-04-27T01:03:01.711Z,54.09
2018-04-27T01:05:27.918Z,54.09
2018-04-27T01:07:54.113Z,54.33
2018-04-27T01:10:20.256Z,54.16
2018-04-27T01:12:46.420Z,54.03
2018-04-27T01:15:12.849Z,54.02
2018-04-27T01:17:39.006Z,54.02
2018-04-27T01:20:05.148Z,54.31
2018-04-27T01:22:31.318Z,54.15
2018-04-27T01:24:57.608Z,54.00
2018-04-27T01:27:23.836Z,54.05
2018-04-27T01:29:49.990Z,53.93
2018-04-27T01:32:16.158Z,53.91
2018-04-27T01:34:42.572Z,53.80
2018-04-27T01:37:08.886Z,53.71
2018-04-27T01:39:35.320Z,53.71
2018-04-27T01:42:01.487Z,53.75
2018-04-27T01:44:27.681Z,53.70
2018-04-27T01:46:53.824Z,53.72
2018-04-27T01:49:19.960Z,53.61
2018-04-27T01:51:46.128Z,53.58
2018-04-27T01:54:12.601Z,53.59
2018-04-27T01:56:39.034Z,53.52
2018-04-27T01:59:05.342Z,53.51
2018-04-27T02:01:31.939Z,53.48
2018-04-27T02:03:58.069Z,53.45
2018-04-27T02:06:24.277Z,53.44
2018-04-27T02:08:50.449Z,53.40
2018-04-27T02:11:16.917Z,53.68
2018-04-27T02:13:43.586Z,53.72
2018-04-27T02:16:09.985Z,53.85
2018-04-27T02:18:36.139Z,53.87
2018-04-27T02:21:02.433Z,53.86
2018-04-27T02:23:28.569Z,53.85
2018-04-27T02:25:54.716Z,53.83
2018-04-27T02:28:20.902Z,53.90
2018-04-27T02:30:47.051Z,53.99
2018-04-27T02:33:13.214Z,53.99
2018-04-27T02:35:39.354Z,54.00
2018-04-27T02:38:05.528Z,54.10
2018-04-27T02:40:31.726Z,54.20
2018-04-27T02:42:57.860Z,54.09
2018-04-27T02:45:24.009Z,54.09
2018-04-27T02:47:50.274Z,54.11
2018-04-27T02:50:16.769Z,54.07
2018-04-27T02:52:42.917Z,54.09
2018-04-27T02:55:09.329Z,54.11
2018-04-27T02:57:35.870Z,54.15
2018-04-27T03:00:02.044Z,54.26
2018-04-27T03:02:28.562Z,54.41
2018-04-27T03:04:54.744Z,54.28
2018-04-27T03:07:20.889Z,54.16
2018-04-27T03:09:47.101Z,54.19
2018-04-27T03:12:13.243Z,54.24
2018-04-27T03:14:39.409Z,54.19
2018-04-27T03:17:05.544Z,54.22
2018-04-27T03:19:31.739Z,54.31
2018-04-27T03:21:57.880Z,54.29
2018-04-27T03:24:24.015Z,54.24
2018-04-27T03:26:50.313Z,54.27
2018-04-27T03:29:16.453Z,54.29
2018-04-27T03:31:42.585Z,54.36
2018-04-27T03:34:08.822Z,54.31
2018-04-27T03:36:34.953Z,54.35
2018-04-27T03:39:01.095Z,54.47
2018-04-27T03:41:27.260Z,54.47
2018-04-27T03:43:53.691Z,54.63
2018-04-27T03:46:19.868Z,54.50
2018-04-27T03:48:46.009Z,54.15
2018-04-27T03:51:12.560Z,54.13
2018-04-27T03:53:38.725Z,54.26
2018-04-27T03:56:05.243Z,54.12
2018-04-27T03:58:31.448Z,54.03
2018-04-27T04:01:09.767Z,53.97
2018-04-27T04:06:40.803Z,54.02
2018-04-27T04:09:07.087Z,53.92
2018-04-27T04:11:33.250Z,53.90
2018-04-27T04:13:59.430Z,53.92
2018-04-27T04:16:25.633Z,53.92
2018-04-27T04:18:51.829Z,53.90
2018-04-27T04:21:17.982Z,53.70
2018-04-27T04:23:44.233Z,53.56
2018-04-27T04:26:10.376Z,53.48
2018-04-27T04:28:36.603Z,53.39
2018-04-27T04:31:02.761Z,53.21
2018-04-27T04:33:28.907Z,53.10
2018-04-27T04:35:55.110Z,53.06
2018-04-27T04:38:21.271Z,52.99
2018-04-27T04:40:47.434Z,52.81
2018-04-27T04:43:13.718Z,52.70
2018-04-27T04:45:39.861Z,52.68
2018-04-27T04:48:05.996Z,54.74
2018-04-27T04:50:32.485Z,56.59
2018-04-27T04:52:58.682Z,57.04
2018-04-27T04:55:24.812Z,56.54
2018-04-27T04:57:51.014Z,56.85
2018-04-27T05:00:17.550Z,56.79
2018-04-27T05:02:43.775Z,56.19
2018-04-27T05:05:09.850Z,55.62
2018-04-27T05:07:36.445Z,55.43
2018-04-27T05:10:02.613Z,55.31
2018-04-27T05:12:28.829Z,55.18
2018-04-27T05:14:55.005Z,55.08
2018-04-27T05:17:21.456Z,54.94
2018-04-27T05:19:54.689Z,54.88
2018-04-27T05:22:20.923Z,54.73
2018-04-27T05:24:47.102Z,54.60
2018-04-27T05:27:13.318Z,54.54
2018-04-27T05:29:39.490Z,54.54
2018-04-27T05:32:05.638Z,54.56
2018-04-27T05:34:31.817Z,54.39
2018-04-27T05:36:58.120Z,54.31
2018-04-27T05:39:24.574Z,54.35
2018-04-27T05:41:51.006Z,54.16
2018-04-27T05:44:17.293Z,53.93
2018-04-27T05:46:43.768Z,53.93
2018-04-27T05:49:10.149Z,53.72
2018-04-27T05:51:36.325Z,53.64
2018-04-27T05:54:02.517Z,53.61
2018-04-27T05:56:28.686Z,53.68
2018-04-27T05:58:54.837Z,53.71
2018-04-27T06:01:21.452Z,53.56
2018-04-27T06:03:59.990Z,53.52
2018-04-27T06:06:26.298Z,53.43
2018-04-27T06:08:52.738Z,53.51
2018-04-27T06:11:18.877Z,53.43
2018-04-27T06:13:45.061Z,53.12
2018-04-27T06:16:11.373Z,53.05
2018-04-27T06:18:37.493Z,52.95
2018-04-27T06:21:03.661Z,53.01
2018-04-27T06:23:30.101Z,52.91
2018-04-27T06:25:56.529Z,52.73
2018-04-27T06:28:22.944Z,52.71
2018-04-27T06:30:49.114Z,52.67
2018-04-27T06:33:15.251Z,52.70
2018-04-27T06:35:41.798Z,52.75
2018-04-27T06:38:07.958Z,52.69
2018-04-27T06:40:34.338Z,52.54
2018-04-27T06:43:00.541Z,52.53
2018-04-27T06:45:26.680Z,52.50
2018-04-27T06:47:52.835Z,52.45
2018-04-27T06:50:19.017Z,52.38
2018-04-27T06:52:45.165Z,52.33
2018-04-27T06:55:11.345Z,52.25
2018-04-27T06:57:37.513Z,52.22
2018-04-27T07:00:03.760Z,52.13
2018-04-27T07:02:30.257Z,52.08
2018-04-27T07:04:56.551Z,52.07
2018-04-27T07:07:23.023Z,52.01
2018-04-27T07:09:49.177Z,51.95
2018-04-27T07:12:15.458Z,51.85
2018-04-27T07:14:41.644Z,51.74
2018-04-27T07:17:07.809Z,51.54
2018-04-27T07:19:33.989Z,51.49
2018-04-27T07:22:00.385Z,51.47
2018-04-27T07:24:27.065Z,51.46
2018-04-27T07:26:53.214Z,51.43
2018-04-27T07:29:19.362Z,51.42
2018-04-27T07:31:45.537Z,51.40
2018-04-27T07:34:11.776Z,51.37
2018-04-27T07:36:38.170Z,51.28
2018-04-27T07:39:05.213Z,51.22
2018-04-27T07:41:31.362Z,51.18
2018-04-27T07:43:57.519Z,51.16
2018-04-27T07:46:23.692Z,51.07
2018-04-27T07:48:49.861Z,51.04
2018-04-27T07:51:16.150Z,50.99
2018-04-27T07:53:42.297Z,50.90
2018-04-27T07:56:08.450Z,50.87
2018-04-27T07:58:34.676Z,50.77
2018-04-27T08:01:01.310Z,50.58
2018-04-27T08:03:27.469Z,50.39
2018-04-27T08:05:53.619Z,50.33
2018-04-27T08:08:26.849Z,50.35
2018-04-27T08:10:53.008Z,50.31
2018-04-27T08:13:19.221Z,50.34
2018-04-27T08:15:45.490Z,50.37
2018-04-27T08:18:11.645Z,50.34
2018-04-27T08:20:37.861Z,50.33
2018-04-27T08:23:04.597Z,50.31
2018-04-27T08:25:33.824Z,50.26
2018-04-27T08:28:00.040Z,50.18
2018-04-27T08:30:26.370Z,50.15
2018-04-27T08:32:52.589Z,50.07
2018-04-27T08:35:18.750Z,49.99
2018-04-27T08:37:45.034Z,49.86
2018-04-27T08:40:11.195Z,49.81
2018-04-27T08:42:37.349Z,49.70
2018-04-27T08:45:03.570Z,49.68
2018-04-27T08:47:29.762Z,49.60
2018-04-27T08:49:55.937Z,49.54
2018-04-27T08:52:22.121Z,49.52
2018-04-27T08:54:48.303Z,49.46
2018-04-27T08:57:14.754Z,49.43
2018-04-27T08:59:40.917Z,49.39
2018-04-27T09:02:07.052Z,49.33
2018-04-27T09:04:33.298Z,49.29
2018-04-27T09:06:59.458Z,49.28
2018-04-27T09:09:25.644Z,49.22
2018-04-27T09:11:51.811Z,49.16
2018-04-27T09:14:18.046Z,49.13
2018-04-27T09:16:44.331Z,49.09
2018-04-27T09:19:10.809Z,49.02
2018-04-27T09:21:37.010Z,48.89
2018-04-27T09:24:03.513Z,48.83
2018-04-27T09:26:29.667Z,48.77
2018-04-27T09:28:55.830Z,48.76
2018-04-27T09:31:22.009Z,48.80
2018-04-27T09:33:48.157Z,48.87
2018-04-27T09:36:14.334Z,48.93
2018-04-27T09:38:40.496Z,48.91
2018-04-27T09:41:06.689Z,48.81
2018-04-27T09:43:32.925Z,48.78
2018-04-27T09:45:59.086Z,48.76
2018-04-27T09:48:25.550Z,48.60
2018-04-27T09:50:51.870Z,48.44
2018-04-27T09:53:18.037Z,48.33
2018-04-27T09:55:44.187Z,48.19
2018-04-27T09:58:10.388Z,48.07
2018-04-27T10:00:37.417Z,48.08
2018-04-27T10:03:03.561Z,47.79
2018-04-27T10:05:29.845Z,47.64
2018-04-27T10:07:56.293Z,47.66
2018-04-27T10:10:22.449Z,47.67
2018-04-27T10:12:48.643Z,47.70
2018-04-27T10:15:14.829Z,47.64
2018-04-27T10:17:41.107Z,47.55
2018-04-27T10:20:07.254Z,47.41
2018-04-27T10:22:33.421Z,47.25
2018-04-27T10:24:59.717Z,47.07
2018-04-27T10:27:25.886Z,47.01
2018-04-27T10:29:52.049Z,46.92
2018-04-27T10:32:18.468Z,46.85
2018-04-27T10:34:44.645Z,46.76
2018-04-27T10:37:11.543Z,46.71
2018-04-27T10:39:37.749Z,46.73
2018-04-27T10:42:04.307Z,46.79
2018-04-27T10:44:30.532Z,46.74
2018-04-27T10:46:56.701Z,46.60
2018-04-27T10:49:22.875Z,46.54
2018-04-27T10:51:49.094Z,46.49
2018-04-27T10:54:15.267Z,46.56
2018-04-27T10:56:41.430Z,46.50
2018-04-27T10:59:07.625Z,46.41
2018-04-27T11:01:33.845Z,46.35
2018-04-27T11:04:00.271Z,46.33
2018-04-27T11:06:26.584Z,46.31
2018-04-27T11:08:52.741Z,46.30
2018-04-27T11:11:19.249Z,46.22
2018-04-27T11:13:45.926Z,46.31
2018-04-27T11:16:12.506Z,46.21
2018-04-27T11:18:38.618Z,46.11
2018-04-27T11:21:04.921Z,46.10
2018-04-27T11:23:31.077Z,46.12
2018-04-27T11:25:57.234Z,46.06
2018-04-27T11:28:23.401Z,46.01
2018-04-27T11:30:49.892Z,45.93
2018-04-27T11:33:16.047Z,45.76
2018-04-27T11:35:42.247Z,45.69
2018-04-27T11:38:08.886Z,45.64
2018-04-27T11:40:35.321Z,45.55
2018-04-27T11:43:01.480Z,45.61
2018-04-27T11:45:27.980Z,45.61
2018-04-27T11:47:54.253Z,45.55
2018-04-27T11:50:20.845Z,45.50
2018-04-27T11:52:47.059Z,45.46
2018-04-27T11:55:13.276Z,45.46
2018-04-27T11:57:39.458Z,45.46
2018-04-27T12:00:05.774Z,45.43
2018-04-27T12:02:33.009Z,45.44
2018-04-27T12:04:59.205Z,45.42
2018-04-27T12:07:25.435Z,45.34
2018-04-27T12:09:51.848Z,45.27
2018-04-27T12:12:18.109Z,45.45
2018-04-27T12:14:44.934Z,45.48
2018-04-27T12:17:11.097Z,45.35
2018-04-27T12:19:37.258Z,45.21
2018-04-27T12:22:03.606Z,45.16
2018-04-27T12:24:29.781Z,45.10
2018-04-27T12:26:55.930Z,45.01
2018-04-27T12:29:22.442Z,44.95
2018-04-27T12:31:48.728Z,44.84
2018-04-27T12:34:14.869Z,44.81
2018-04-27T12:36:41.025Z,44.63
2018-04-27T12:39:07.183Z,44.54
2018-04-27T12:41:34.021Z,44.58
2018-04-27T12:44:00.188Z,44.67
2018-04-27T12:46:26.378Z,44.75
2018-04-27T12:48:53.018Z,44.83
2018-04-27T12:51:19.430Z,44.89
2018-04-27T12:53:45.586Z,44.94
2018-04-27T12:56:11.793Z,45.11
2018-04-27T12:58:38.004Z,45.15
2018-04-27T13:01:04.174Z,45.14
2018-04-27T13:03:30.318Z,45.16
2018-04-27T13:05:56.505Z,45.19
2018-04-27T13:08:22.658Z,45.18
2018-04-27T13:10:49.136Z,45.21
2018-04-27T13:13:15.315Z,45.20
2018-04-27T13:15:41.902Z,45.18
2018-04-27T13:18:08.067Z,45.19
2018-04-27T13:20:34.209Z,45.16
2018-04-27T13:23:00.398Z,45.14
2018-04-27T13:25:26.545Z,45.11
2018-04-27T13:27:52.697Z,45.05
2018-04-27T13:30:18.874Z,44.95
2018-04-27T13:32:45.017Z,44.92
2018-04-27T13:35:11.320Z,44.94
2018-04-27T13:37:37.511Z,44.99
2018-04-27T13:40:03.650Z,45.05
2018-04-27T13:42:30.019Z,45.02
2018-04-27T13:44:56.179Z,44.92
2018-04-27T13:47:22.317Z,44.86
2018-04-27T13:49:48.594Z,44.73
2018-04-27T13:52:14.736Z,44.56
2018-04-27T13:54:40.901Z,44.49
2018-04-27T13:57:07.106Z,44.48
2018-04-27T13:59:33.266Z,44.50
2018-04-27T14:01:59.405Z,44.60
2018-04-27T14:04:25.805Z,44.52
2018-04-27T14:06:51.956Z,44.41
2018-04-27T14:09:18.308Z,44.24
2018-04-27T14:11:44.452Z,44.07
2018-04-27T14:14:10.589Z,43.82
2018-04-27T14:16:36.893Z,43.66
2018-04-27T14:19:03.028Z,43.70
2018-04-27T14:21:29.476Z,43.97
2018-04-27T14:23:55.633Z,44.42
2018-04-27T14:26:21.768Z,44.81
2018-04-27T14:28:47.891Z,45.15
2018-04-27T14:31:14.078Z,45.26
2018-04-27T14:33:40.237Z,45.15
2018-04-27T14:36:06.377Z,44.97
2018-04-27T14:38:33.249Z,44.90
2018-04-27T14:40:59.395Z,44.77
2018-04-27T14:43:25.730Z,44.65
2018-04-27T14:45:52.347Z,44.10
2018-04-27T14:48:18.473Z,44.20
2018-04-27T14:50:44.637Z,44.50
2018-04-27T14:53:11.032Z,44.51
2018-04-27T14:55:37.194Z,43.42
2018-04-27T14:58:03.440Z,41.87
2018-04-27T15:00:29.603Z,40.71
2018-04-27T15:02:55.786Z,40.52
2018-04-27T15:05:21.965Z,42.24
2018-04-27T15:07:48.117Z,43.52
2018-04-27T15:10:14.294Z,44.33
2018-04-27T15:12:40.503Z,44.89
2018-04-27T15:15:06.785Z,45.21
2018-04-27T15:17:32.966Z,45.46
2018-04-27T15:19:59.174Z,45.65
2018-04-27T15:22:25.300Z,45.78
2018-04-27T15:24:51.442Z,45.86
2018-04-27T15:27:17.689Z,45.93
2018-04-27T15:29:43.817Z,45.98
2018-04-27T15:32:09.964Z,46.06
2018-04-27T15:34:36.361Z,46.15
2018-04-27T15:37:02.825Z,46.21
2018-04-27T15:39:29.038Z,46.29
2018-04-27T15:41:55.218Z,46.35
2018-04-27T15:44:21.413Z,46.36
2018-04-27T15:46:47.758Z,46.41
2018-04-27T15:49:13.920Z,46.45
2018-04-27T15:51:40.401Z,46.51
2018-04-27T15:54:06.590Z,46.52
2018-04-27T15:56:32.755Z,46.60
2018-04-27T15:58:58.921Z,46.61
2018-04-27T16:01:25.141Z,46.60
2018-04-27T16:03:51.379Z,46.59
2018-04-27T16:06:17.567Z,46.60
2018-04-27T16:08:44.102Z,46.63
2018-04-27T16:11:10.631Z,46.66
2018-04-27T16:13:47.816Z,46.69
2018-04-27T16:16:13.988Z,46.74
2018-04-27T16:18:40.153Z,46.80
2018-04-27T16:21:06.605Z,46.84
2018-04-27T16:23:32.790Z,46.89
2018-04-27T16:25:58.938Z,46.96
2018-04-27T16:28:25.155Z,47.03
2018-04-27T16:30:51.313Z,47.07
2018-04-27T16:33:17.459Z,47.11
2018-04-27T16:35:44.055Z,47.15
2018-04-27T16:38:10.194Z,47.22
2018-04-27T16:40:37.150Z,47.27
2018-04-27T16:43:03.328Z,47.30
2018-04-27T16:45:29.481Z,47.35
2018-04-27T16:47:55.795Z,47.40
2018-04-27T16:50:21.993Z,47.47
2018-04-27T16:52:48.137Z,47.58
2018-04-27T16:55:14.644Z,47.67
2018-04-27T16:57:41.052Z,47.76
2018-04-27T17:00:07.221Z,47.88
2018-04-27T17:02:33.405Z,47.97
2018-04-27T17:04:59.575Z,48.06
2018-04-27T17:07:26.064Z,48.12
2018-04-27T17:09:52.257Z,48.17
2018-04-27T17:12:18.408Z,48.22
2018-04-27T17:14:44.623Z,48.27
2018-04-27T17:17:10.862Z,48.31
2018-04-27T17:19:36.982Z,48.37
2018-04-27T17:22:03.536Z,48.41
2018-04-27T17:24:29.751Z,48.44
2018-04-27T17:26:55.913Z,48.47
2018-04-27T17:29:22.070Z,48.51
2018-04-27T17:31:48.380Z,48.54
2018-04-27T17:34:14.884Z,48.58
2018-04-27T17:36:41.150Z,48.63
2018-04-27T17:39:07.287Z,48.68
2018-04-27T17:41:33.570Z,48.69
2018-04-27T17:43:59.748Z,48.69
2018-04-27T17:46:26.006Z,48.70
2018-04-27T17:48:52.285Z,48.72
2018-04-27T17:51:18.433Z,48.76
2018-04-27T17:53:44.917Z,48.80
2018-04-27T17:56:11.122Z,48.85
2018-04-27T17:58:37.478Z,48.90
2018-04-27T18:01:03.632Z,48.92
2018-04-27T18:03:29.794Z,48.97
2018-04-27T18:05:56.281Z,49.01
2018-04-27T18:08:22.792Z,49.04
2018-04-27T18:10:49.223Z,49.06
2018-04-27T18:13:15.904Z,49.11
2018-04-27T18:15:42.061Z,49.15
2018-04-27T18:18:08.258Z,49.21
2018-04-27T18:20:34.512Z,49.24
2018-04-27T18:23:00.676Z,49.27
2018-04-27T18:25:26.910Z,49.32
2018-04-27T18:27:53.075Z,49.38
2018-04-27T18:30:19.255Z,49.42
2018-04-27T18:32:45.559Z,49.44
2018-04-27T18:35:11.630Z,49.46
2018-04-27T18:37:37.846Z,49.49
2018-04-27T18:40:04.011Z,49.54
2018-04-27T18:42:30.197Z,49.59
2018-04-27T18:44:56.649Z,49.63
2018-04-27T18:47:22.881Z,49.65
2018-04-27T18:49:49.109Z,49.69
2018-04-27T18:52:15.277Z,49.74
2018-04-27T18:54:41.577Z,49.74
2018-04-27T18:57:07.771Z,49.78
2018-04-27T18:59:33.957Z,49.78
2018-04-27T19:02:00.191Z,49.79
2018-04-27T19:04:26.413Z,49.84
2018-04-27T19:06:52.582Z,49.86
2018-04-27T19:09:18.827Z,49.92
2018-04-27T19:11:45.039Z,49.94
2018-04-27T19:14:11.464Z,49.97
2018-04-27T19:16:37.712Z,49.99
2018-04-27T19:19:03.897Z,50.00
2018-04-27T19:21:30.100Z,50.05
2018-04-27T19:23:56.286Z,50.06
2018-04-27T19:26:23.551Z,50.10
2018-04-27T19:28:56.605Z,50.13
2018-04-27T19:31:22.798Z,50.15
2018-04-27T19:33:50.087Z,50.12
2018-04-27T19:36:16.325Z,50.18
2018-04-27T19:38:42.479Z,50.19
2018-04-27T19:41:08.653Z,50.18
2018-04-27T19:43:35.112Z,50.24
2018-04-27T19:46:01.413Z,50.25
2018-04-27T19:48:27.596Z,50.27
2018-04-27T19:50:53.867Z,50.29
2018-04-27T19:53:20.237Z,50.28
2018-04-27T19:55:46.468Z,50.30
2018-04-27T19:58:12.645Z,50.33
2018-04-27T20:00:39.893Z,50.35
2018-04-27T20:03:06.065Z,50.36
2018-04-27T20:05:35.056Z,50.37
2018-04-27T20:08:01.315Z,50.44
2018-04-27T20:10:34.520Z,50.45
2018-04-27T20:13:00.727Z,50.44
2018-04-27T20:15:35.197Z,50.43
2018-04-27T20:18:01.397Z,50.45
2018-04-27T20:20:27.593Z,50.47
2018-04-27T20:22:53.852Z,50.48
2018-04-27T20:25:20.027Z,50.48
2018-04-27T20:27:46.282Z,50.49
2018-04-27T20:30:14.385Z,50.51
2018-04-27T20:32:43.415Z,50.53
2018-04-27T20:35:12.340Z,50.52
2018-04-27T20:37:38.602Z,50.48
2018-04-27T20:40:04.835Z,50.44
2018-04-27T20:42:31.144Z,50.47
2018-04-27T20:44:57.649Z,50.49
2018-04-27T20:47:23.829Z,50.54
2018-04-27T20:49:50.384Z,50.51
2018-04-27T20:52:16.693Z,50.52
2018-04-27T20:54:43.177Z,50.52
2018-04-27T20:57:09.473Z,50.53
2018-04-27T20:59:35.691Z,50.55
2018-04-27T21:02:02.166Z,50.56
2018-04-27T21:04:28.379Z,50.61
2018-04-27T21:06:56.634Z,50.63
2018-04-27T21:09:22.897Z,50.63
2018-04-27T21:11:49.066Z,50.61
2018-04-27T21:14:15.274Z,50.62
2018-04-27T21:16:41.486Z,50.65
2018-04-27T21:19:07.665Z,50.64
2018-04-27T21:21:33.901Z,50.67
2018-04-27T21:24:00.146Z,50.74
2018-04-27T21:26:27.296Z,50.74
2018-04-27T21:28:53.848Z,50.73
2018-04-27T21:31:20.030Z,50.70
2018-04-27T21:33:53.012Z,50.70
2018-04-27T21:36:19.233Z,50.70
2018-04-27T21:38:57.269Z,50.68
2018-04-27T21:44:34.294Z,50.69
2018-04-27T21:49:57.124Z,50.73
2018-04-27T21:52:29.505Z,50.73
2018-04-27T21:54:55.724Z,50.77
2018-04-27T21:57:23.774Z,50.74
2018-04-27T21:59:54.050Z,50.74
2018-04-27T22:05:55.061Z,50.78
2018-04-27T22:08:22.997Z,50.85
2018-04-27T22:10:49.217Z,50.82
2018-04-27T22:13:16.856Z,50.84
2018-04-27T22:15:43.312Z,50.84
2018-04-27T22:18:09.616Z,50.87
2018-04-27T22:20:45.796Z,50.87
2018-04-27T22:23:12.093Z,50.87
2018-04-27T22:25:43.257Z,50.86
2018-04-27T22:28:09.489Z,50.90
2018-04-27T22:30:37.891Z,50.91
2018-04-27T22:33:15.124Z,50.91
2018-04-27T22:35:58.202Z,50.91
2018-04-27T22:38:34.624Z,50.87
2018-04-27T22:41:00.853Z,50.93
2018-04-27T22:43:27.040Z,50.92
2018-04-27T22:46:00.128Z,50.95
2018-04-27T22:51:21.679Z,51.01
2018-04-27T22:54:06.664Z,50.98
2018-04-27T22:59:27.539Z,51.03
2018-04-27T23:01:56.496Z,51.07
2018-04-27T23:04:22.874Z,51.07
2018-04-27T23:06:49.993Z,51.09
2018-04-27T23:09:16.173Z,51.10
2018-04-27T23:11:42.817Z,51.13
2018-04-27T23:14:19.870Z,51.12
2018-04-27T23:16:48.098Z,51.14
2018-04-27T23:19:14.332Z,51.17
2018-04-27T23:22:16.185Z,51.21
2018-04-27T23:24:42.368Z,51.23
2018-04-27T23:27:08.856Z,51.24
2018-04-27T23:29:35.032Z,51.29
2018-04-27T23:32:01.547Z,51.29
2018-04-27T23:34:27.905Z,51.30
2018-04-27T23:36:54.124Z,51.25
2018-04-27T23:39:20.341Z,51.23
2018-04-27T23:41:46.597Z,51.22
2018-04-27T23:44:12.833Z,51.20
2018-04-27T23:46:39.068Z,51.17
2018-04-27T23:49:05.307Z,51.15
2018-04-27T23:51:31.519Z,51.20
2018-04-27T23:53:57.743Z,51.21
2018-04-27T23:56:40.418Z,51.18
2018-04-27T23:59:06.606Z,51.22
